sensor_id;sensor_type;location;lat;lon;timestamp;P1;durP1;ratioP1;P2;durP2;ratioP2
74344;SDS011;62776;50.518;6.732;2023-05-10T00:02:03;2.28;;;1.02;;
74344;SDS011;62776;50.518;6.732;2023-05-10T00:04:55;1.13;;;0.80;;
74344;SDS011;62776;50.518;6.732;2023-05-10T00:07:41;2.55;;;0.75;;
74344;SDS011;62776;50.518;6.732;2023-05-10T00:10:30;0.93;;;0.70;;
74344;SDS011;62776;50.518;6.732;2023-05-10T00:13:30;0.90;;;0.90;;
74344;SDS011;62776;50.518;6.732;2023-05-10T00:16:19;0.80;;;0.80;;
74344;SDS011;62776;50.518;6.732;2023-05-10T00:19:11;0.93;;;0.93;;
74344;SDS011;62776;50.518;6.732;2023-05-10T00:21:59;1.67;;;1.05;;
74344;SDS011;62776;50.518;6.732;2023-05-10T00:24:47;1.20;;;1.10;;
74344;SDS011;62776;50.518;6.732;2023-05-10T00:27:33;0.95;;;0.90;;
74344;SDS011;62776;50.518;6.732;2023-05-10T00:30:20;1.55;;;0.60;;
74344;SDS011;62776;50.518;6.732;2023-05-10T00:33:14;0.75;;;0.70;;
74344;SDS011;62776;50.518;6.732;2023-05-10T00:36:08;0.77;;;0.70;;
74344;SDS011;62776;50.518;6.732;2023-05-10T00:38:54;3.33;;;1.00;;
74344;SDS011;62776;50.518;6.732;2023-05-10T00:41:43;0.98;;;0.68;;
74344;SDS011;62776;50.518;6.732;2023-05-10T00:44:29;1.13;;;1.00;;
74344;SDS011;62776;50.518;6.732;2023-05-10T00:47:16;1.00;;;0.85;;
74344;SDS011;62776;50.518;6.732;2023-05-10T00:50:13;0.60;;;0.60;;
74344;SDS011;62776;50.518;6.732;2023-05-10T00:53:07;0.63;;;0.63;;
74344;SDS011;62776;50.518;6.732;2023-05-10T00:55:54;0.95;;;0.80;;
74344;SDS011;62776;50.518;6.732;2023-05-10T00:58:41;1.17;;;1.00;;
74344;SDS011;62776;50.518;6.732;2023-05-10T01:01:30;1.23;;;0.98;;
74344;SDS011;62776;50.518;6.732;2023-05-10T01:04:22;2.72;;;1.05;;
74344;SDS011;62776;50.518;6.732;2023-05-10T01:07:12;1.48;;;1.20;;
74344;SDS011;62776;50.518;6.732;2023-05-10T01:09:59;1.42;;;1.20;;
74344;SDS011;62776;50.518;6.732;2023-05-10T01:12:52;2.38;;;1.40;;
74344;SDS011;62776;50.518;6.732;2023-05-10T01:15:44;1.70;;;1.60;;
74344;SDS011;62776;50.518;6.732;2023-05-10T01:18:35;4.45;;;1.88;;
74344;SDS011;62776;50.518;6.732;2023-05-10T01:21:31;2.78;;;2.35;;
74344;SDS011;62776;50.518;6.732;2023-05-10T01:25:09;3.35;;;1.80;;
74344;SDS011;62776;50.518;6.732;2023-05-10T01:28:26;1.60;;;1.50;;
74344;SDS011;62776;50.518;6.732;2023-05-10T01:37:59;2.72;;;2.50;;
74344;SDS011;62776;50.518;6.732;2023-05-10T01:44:14;3.85;;;2.33;;
74344;SDS011;62776;50.518;6.732;2023-05-10T01:50:30;3.05;;;2.55;;
74344;SDS011;62776;50.518;6.732;2023-05-10T01:53:18;3.55;;;2.95;;
74344;SDS011;62776;50.518;6.732;2023-05-10T01:56:06;3.28;;;2.63;;
74344;SDS011;62776;50.518;6.732;2023-05-10T01:59:01;3.42;;;2.40;;
74344;SDS011;62776;50.518;6.732;2023-05-10T02:01:54;4.65;;;3.13;;
74344;SDS011;62776;50.518;6.732;2023-05-10T02:04:45;3.42;;;2.80;;
74344;SDS011;62776;50.518;6.732;2023-05-10T02:07:35;3.72;;;2.78;;
74344;SDS011;62776;50.518;6.732;2023-05-10T02:10:23;3.20;;;2.67;;
74344;SDS011;62776;50.518;6.732;2023-05-10T02:13:10;3.13;;;2.83;;
74344;SDS011;62776;50.518;6.732;2023-05-10T02:15:57;2.80;;;2.60;;
74344;SDS011;62776;50.518;6.732;2023-05-10T02:18:47;3.17;;;2.88;;
74344;SDS011;62776;50.518;6.732;2023-05-10T02:21:42;2.97;;;2.72;;
74344;SDS011;62776;50.518;6.732;2023-05-10T02:24:31;3.17;;;2.83;;
74344;SDS011;62776;50.518;6.732;2023-05-10T02:27:21;4.30;;;2.60;;
74344;SDS011;62776;50.518;6.732;2023-05-10T02:30:10;3.10;;;2.90;;
74344;SDS011;62776;50.518;6.732;2023-05-10T02:32:58;2.30;;;2.10;;
74344;SDS011;62776;50.518;6.732;2023-05-10T02:35:50;2.08;;;1.88;;
74344;SDS011;62776;50.518;6.732;2023-05-10T02:38:40;2.63;;;1.58;;
74344;SDS011;62776;50.518;6.732;2023-05-10T02:41:30;2.25;;;1.80;;
74344;SDS011;62776;50.518;6.732;2023-05-10T02:44:18;2.65;;;1.77;;
74344;SDS011;62776;50.518;6.732;2023-05-10T02:47:05;1.50;;;1.40;;
74344;SDS011;62776;50.518;6.732;2023-05-10T02:49:52;1.90;;;1.80;;
74344;SDS011;62776;50.518;6.732;2023-05-10T02:52:42;1.45;;;1.35;;
74344;SDS011;62776;50.518;6.732;2023-05-10T02:55:36;1.80;;;1.70;;
74344;SDS011;62776;50.518;6.732;2023-05-10T02:58:34;1.95;;;1.63;;
74344;SDS011;62776;50.518;6.732;2023-05-10T03:01:23;3.80;;;1.40;;
74344;SDS011;62776;50.518;6.732;2023-05-10T03:04:10;1.67;;;1.45;;
74344;SDS011;62776;50.518;6.732;2023-05-10T03:07:02;1.65;;;1.55;;
74344;SDS011;62776;50.518;6.732;2023-05-10T03:09:49;1.17;;;1.15;;
74344;SDS011;62776;50.518;6.732;2023-05-10T03:15:37;1.17;;;1.08;;
74344;SDS011;62776;50.518;6.732;2023-05-10T03:19:24;1.60;;;1.50;;
74344;SDS011;62776;50.518;6.732;2023-05-10T03:22:04;1.35;;;1.25;;
74344;SDS011;62776;50.518;6.732;2023-05-10T03:24:56;1.42;;;1.33;;
74344;SDS011;62776;50.518;6.732;2023-05-10T03:27:55;1.73;;;1.33;;
74344;SDS011;62776;50.518;6.732;2023-05-10T03:30:47;0.98;;;0.98;;
74344;SDS011;62776;50.518;6.732;2023-05-10T03:33:34;1.50;;;1.40;;
74344;SDS011;62776;50.518;6.732;2023-05-10T03:36:31;1.60;;;1.45;;
74344;SDS011;62776;50.518;6.732;2023-05-10T03:39:18;4.20;;;3.80;;
74344;SDS011;62776;50.518;6.732;2023-05-10T03:47:21;1.63;;;1.52;;
74344;SDS011;62776;50.518;6.732;2023-05-10T03:52:43;1.92;;;1.48;;
74344;SDS011;62776;50.518;6.732;2023-05-10T03:55:33;1.15;;;1.08;;
74344;SDS011;62776;50.518;6.732;2023-05-10T03:58:19;1.35;;;1.25;;
74344;SDS011;62776;50.518;6.732;2023-05-10T04:01:08;1.50;;;1.40;;
74344;SDS011;62776;50.518;6.732;2023-05-10T04:03:55;2.97;;;1.25;;
74344;SDS011;62776;50.518;6.732;2023-05-10T04:06:42;2.90;;;1.67;;
74344;SDS011;62776;50.518;6.732;2023-05-10T04:09:30;1.40;;;1.30;;
74344;SDS011;62776;50.518;6.732;2023-05-10T04:12:18;2.72;;;1.90;;
74344;SDS011;62776;50.518;6.732;2023-05-10T04:15:07;4.28;;;1.83;;
74344;SDS011;62776;50.518;6.732;2023-05-10T04:17:55;2.97;;;1.73;;
74344;SDS011;62776;50.518;6.732;2023-05-10T04:20:41;2.25;;;2.05;;
74344;SDS011;62776;50.518;6.732;2023-05-10T04:23:30;2.50;;;2.30;;
74344;SDS011;62776;50.518;6.732;2023-05-10T04:26:18;2.67;;;2.42;;
74344;SDS011;62776;50.518;6.732;2023-05-10T04:29:11;2.78;;;2.58;;
74344;SDS011;62776;50.518;6.732;2023-05-10T04:31:59;4.88;;;3.80;;
74344;SDS011;62776;50.518;6.732;2023-05-10T04:34:52;4.32;;;3.92;;
74344;SDS011;62776;50.518;6.732;2023-05-10T04:37:40;4.15;;;3.53;;
74344;SDS011;62776;50.518;6.732;2023-05-10T04:40:33;4.65;;;4.25;;
74344;SDS011;62776;50.518;6.732;2023-05-10T04:43:27;5.07;;;4.40;;
74344;SDS011;62776;50.518;6.732;2023-05-10T04:46:18;4.30;;;3.92;;
74344;SDS011;62776;50.518;6.732;2023-05-10T04:49:24;4.55;;;4.07;;
74344;SDS011;62776;50.518;6.732;2023-05-10T04:52:13;3.90;;;3.60;;
74344;SDS011;62776;50.518;6.732;2023-05-10T04:55:01;5.20;;;4.70;;
74344;SDS011;62776;50.518;6.732;2023-05-10T04:57:47;4.60;;;3.80;;
74344;SDS011;62776;50.518;6.732;2023-05-10T05:00:38;4.20;;;3.80;;
74344;SDS011;62776;50.518;6.732;2023-05-10T05:03:28;4.15;;;3.85;;
74344;SDS011;62776;50.518;6.732;2023-05-10T05:06:14;4.80;;;3.90;;
74344;SDS011;62776;50.518;6.732;2023-05-10T05:09:01;4.47;;;3.72;;
74344;SDS011;62776;50.518;6.732;2023-05-10T05:11:48;4.68;;;3.95;;
74344;SDS011;62776;50.518;6.732;2023-05-10T05:14:37;4.13;;;3.22;;
74344;SDS011;62776;50.518;6.732;2023-05-10T05:17:24;5.68;;;3.40;;
74344;SDS011;62776;50.518;6.732;2023-05-10T05:20:11;4.70;;;3.40;;
74344;SDS011;62776;50.518;6.732;2023-05-10T05:22:59;4.15;;;3.30;;
74344;SDS011;62776;50.518;6.732;2023-05-10T05:25:47;3.80;;;3.35;;
74344;SDS011;62776;50.518;6.732;2023-05-10T05:28:42;3.22;;;2.92;;
74344;SDS011;62776;50.518;6.732;2023-05-10T05:31:29;4.45;;;3.10;;
74344;SDS011;62776;50.518;6.732;2023-05-10T05:34:19;4.55;;;3.13;;
74344;SDS011;62776;50.518;6.732;2023-05-10T05:37:16;3.05;;;2.85;;
74344;SDS011;62776;50.518;6.732;2023-05-10T05:40:12;3.70;;;2.95;;
74344;SDS011;62776;50.518;6.732;2023-05-10T05:43:01;2.53;;;2.00;;
74344;SDS011;62776;50.518;6.732;2023-05-10T05:45:48;2.60;;;2.40;;
74344;SDS011;62776;50.518;6.732;2023-05-10T05:48:35;2.55;;;2.20;;
74344;SDS011;62776;50.518;6.732;2023-05-10T05:51:21;2.42;;;1.80;;
74344;SDS011;62776;50.518;6.732;2023-05-10T05:54:09;2.55;;;2.35;;
74344;SDS011;62776;50.518;6.732;2023-05-10T05:56:59;2.50;;;2.05;;
74344;SDS011;62776;50.518;6.732;2023-05-10T05:59:46;2.33;;;1.90;;
74344;SDS011;62776;50.518;6.732;2023-05-10T06:02:33;2.10;;;2.00;;
74344;SDS011;62776;50.518;6.732;2023-05-10T06:05:21;1.95;;;1.75;;
74344;SDS011;62776;50.518;6.732;2023-05-10T06:08:07;2.10;;;1.90;;
74344;SDS011;62776;50.518;6.732;2023-05-10T06:10:56;1.75;;;1.60;;
74344;SDS011;62776;50.518;6.732;2023-05-10T06:13:42;2.38;;;1.40;;
74344;SDS011;62776;50.518;6.732;2023-05-10T06:16:30;1.88;;;1.77;;
74344;SDS011;62776;50.518;6.732;2023-05-10T06:19:19;2.45;;;1.48;;
74344;SDS011;62776;50.518;6.732;2023-05-10T06:22:07;2.40;;;1.80;;
74344;SDS011;62776;50.518;6.732;2023-05-10T06:27:48;1.52;;;1.42;;
74344;SDS011;62776;50.518;6.732;2023-05-10T06:30:36;1.95;;;1.85;;
74344;SDS011;62776;50.518;6.732;2023-05-10T06:33:23;1.80;;;1.70;;
74344;SDS011;62776;50.518;6.732;2023-05-10T06:36:12;2.17;;;1.90;;
74344;SDS011;62776;50.518;6.732;2023-05-10T06:39:00;1.90;;;1.80;;
74344;SDS011;62776;50.518;6.732;2023-05-10T06:41:47;1.70;;;1.60;;
74344;SDS011;62776;50.518;6.732;2023-05-10T06:44:34;1.40;;;1.30;;
74344;SDS011;62776;50.518;6.732;2023-05-10T06:47:20;1.65;;;1.40;;
74344;SDS011;62776;50.518;6.732;2023-05-10T06:50:09;1.63;;;1.50;;
74344;SDS011;62776;50.518;6.732;2023-05-10T06:53:00;1.60;;;1.50;;
74344;SDS011;62776;50.518;6.732;2023-05-10T06:55:50;1.73;;;1.63;;
74344;SDS011;62776;50.518;6.732;2023-05-10T06:58:45;1.52;;;1.42;;
74344;SDS011;62776;50.518;6.732;2023-05-10T07:01:37;1.70;;;1.38;;
74344;SDS011;62776;50.518;6.732;2023-05-10T07:04:25;1.52;;;1.40;;
74344;SDS011;62776;50.518;6.732;2023-05-10T07:07:23;1.65;;;1.27;;
74344;SDS011;62776;50.518;6.732;2023-05-10T07:10:10;1.67;;;1.58;;
74344;SDS011;62776;50.518;6.732;2023-05-10T07:12:57;1.50;;;1.40;;
74344;SDS011;62776;50.518;6.732;2023-05-10T07:15:44;1.75;;;1.50;;
74344;SDS011;62776;50.518;6.732;2023-05-10T07:18:35;2.00;;;1.30;;
74344;SDS011;62776;50.518;6.732;2023-05-10T07:21:28;3.10;;;1.85;;
74344;SDS011;62776;50.518;6.732;2023-05-10T07:24:17;1.50;;;1.40;;
74344;SDS011;62776;50.518;6.732;2023-05-10T07:27:10;2.10;;;1.90;;
74344;SDS011;62776;50.518;6.732;2023-05-10T07:29:57;1.50;;;1.33;;
74344;SDS011;62776;50.518;6.732;2023-05-10T07:32:44;1.15;;;1.02;;
74344;SDS011;62776;50.518;6.732;2023-05-10T07:35:31;1.30;;;1.20;;
74344;SDS011;62776;50.518;6.732;2023-05-10T07:38:17;2.13;;;0.90;;
74344;SDS011;62776;50.518;6.732;2023-05-10T07:41:04;0.70;;;0.70;;
74344;SDS011;62776;50.518;6.732;2023-05-10T07:43:50;0.60;;;0.60;;
74344;SDS011;62776;50.518;6.732;2023-05-10T07:46:37;0.40;;;0.40;;
74344;SDS011;62776;50.518;6.732;2023-05-10T07:49:23;0.60;;;0.60;;
74344;SDS011;62776;50.518;6.732;2023-05-10T07:52:10;1.27;;;0.60;;
74344;SDS011;62776;50.518;6.732;2023-05-10T07:54:58;0.47;;;0.47;;
74344;SDS011;62776;50.518;6.732;2023-05-10T07:57:44;0.37;;;0.37;;
74344;SDS011;62776;50.518;6.732;2023-05-10T08:00:30;0.77;;;0.77;;
74344;SDS011;62776;50.518;6.732;2023-05-10T08:03:17;0.40;;;0.40;;
74344;SDS011;62776;50.518;6.732;2023-05-10T08:06:03;0.70;;;0.70;;
74344;SDS011;62776;50.518;6.732;2023-05-10T08:08:51;0.80;;;0.30;;
74344;SDS011;62776;50.518;6.732;2023-05-10T08:11:43;0.30;;;0.30;;
74344;SDS011;62776;50.518;6.732;2023-05-10T08:14:32;0.80;;;0.50;;
74344;SDS011;62776;50.518;6.732;2023-05-10T08:17:25;0.40;;;0.40;;
74344;SDS011;62776;50.518;6.732;2023-05-10T08:20:13;2.40;;;0.45;;
74344;SDS011;62776;50.518;6.732;2023-05-10T08:23:08;0.47;;;0.47;;
74344;SDS011;62776;50.518;6.732;2023-05-10T08:25:55;1.05;;;0.40;;
74344;SDS011;62776;50.518;6.732;2023-05-10T08:28:42;0.40;;;0.40;;
74344;SDS011;62776;50.518;6.732;2023-05-10T08:31:29;0.40;;;0.40;;
74344;SDS011;62776;50.518;6.732;2023-05-10T08:34:15;0.50;;;0.50;;
74344;SDS011;62776;50.518;6.732;2023-05-10T08:37:03;0.38;;;0.38;;
74344;SDS011;62776;50.518;6.732;2023-05-10T08:39:52;0.35;;;0.35;;
74344;SDS011;62776;50.518;6.732;2023-05-10T08:42:40;0.40;;;0.40;;
74344;SDS011;62776;50.518;6.732;2023-05-10T08:45:36;2.17;;;0.47;;
74344;SDS011;62776;50.518;6.732;2023-05-10T08:48:26;1.65;;;0.40;;
74344;SDS011;62776;50.518;6.732;2023-05-10T08:51:24;0.40;;;0.40;;
74344;SDS011;62776;50.518;6.732;2023-05-10T08:54:14;0.40;;;0.40;;
74344;SDS011;62776;50.518;6.732;2023-05-10T08:57:02;3.92;;;0.60;;
74344;SDS011;62776;50.518;6.732;2023-05-10T08:59:50;0.40;;;0.40;;
74344;SDS011;62776;50.518;6.732;2023-05-10T09:02:39;0.55;;;0.30;;
74344;SDS011;62776;50.518;6.732;2023-05-10T09:05:33;0.40;;;0.40;;
74344;SDS011;62776;50.518;6.732;2023-05-10T09:08:24;0.30;;;0.30;;
74344;SDS011;62776;50.518;6.732;2023-05-10T09:11:17;0.40;;;0.40;;
74344;SDS011;62776;50.518;6.732;2023-05-10T09:14:05;0.52;;;0.30;;
74344;SDS011;62776;50.518;6.732;2023-05-10T09:16:52;0.40;;;0.40;;
74344;SDS011;62776;50.518;6.732;2023-05-10T09:19:40;0.60;;;0.60;;
74344;SDS011;62776;50.518;6.732;2023-05-10T09:22:26;0.40;;;0.40;;
74344;SDS011;62776;50.518;6.732;2023-05-10T09:25:14;0.32;;;0.32;;
74344;SDS011;62776;50.518;6.732;2023-05-10T09:28:01;0.60;;;0.38;;
74344;SDS011;62776;50.518;6.732;2023-05-10T09:30:52;0.30;;;0.30;;
74344;SDS011;62776;50.518;6.732;2023-05-10T09:33:48;0.30;;;0.30;;
74344;SDS011;62776;50.518;6.732;2023-05-10T09:36:36;0.40;;;0.40;;
74344;SDS011;62776;50.518;6.732;2023-05-10T09:39:37;0.43;;;0.30;;
74344;SDS011;62776;50.518;6.732;2023-05-10T09:42:24;0.40;;;0.40;;
74344;SDS011;62776;50.518;6.732;2023-05-10T09:45:10;0.40;;;0.40;;
74344;SDS011;62776;50.518;6.732;2023-05-10T09:50:56;0.77;;;0.40;;
74344;SDS011;62776;50.518;6.732;2023-05-10T09:53:42;0.30;;;0.30;;
74344;SDS011;62776;50.518;6.732;2023-05-10T09:59:25;2.03;;;0.32;;
74344;SDS011;62776;50.518;6.732;2023-05-10T10:02:14;0.38;;;0.38;;
74344;SDS011;62776;50.518;6.732;2023-05-10T10:05:01;0.43;;;0.40;;
74344;SDS011;62776;50.518;6.732;2023-05-10T10:07:51;0.30;;;0.30;;
74344;SDS011;62776;50.518;6.732;2023-05-10T10:10:41;2.15;;;0.52;;
74344;SDS011;62776;50.518;6.732;2023-05-10T10:13:30;0.40;;;0.40;;
74344;SDS011;62776;50.518;6.732;2023-05-10T10:16:17;0.52;;;0.30;;
74344;SDS011;62776;50.518;6.732;2023-05-10T10:19:05;0.20;;;0.20;;
74344;SDS011;62776;50.518;6.732;2023-05-10T10:21:53;0.40;;;0.40;;
74344;SDS011;62776;50.518;6.732;2023-05-10T10:24:43;0.93;;;0.40;;
74344;SDS011;62776;50.518;6.732;2023-05-10T10:36:39;1.08;;;0.60;;
74344;SDS011;62776;50.518;6.732;2023-05-10T10:39:34;0.90;;;0.40;;
74344;SDS011;62776;50.518;6.732;2023-05-10T10:42:44;0.77;;;0.38;;
74344;SDS011;62776;50.518;6.732;2023-05-10T10:45:38;0.35;;;0.30;;
74344;SDS011;62776;50.518;6.732;2023-05-10T10:49:14;0.47;;;0.47;;
74344;SDS011;62776;50.518;6.732;2023-05-10T10:57:57;1.73;;;0.60;;
74344;SDS011;62776;50.518;6.732;2023-05-10T11:00:48;1.00;;;0.93;;
74344;SDS011;62776;50.518;6.732;2023-05-10T11:11:16;0.60;;;0.60;;
74344;SDS011;62776;50.518;6.732;2023-05-10T11:14:09;0.73;;;0.40;;
74344;SDS011;62776;50.518;6.732;2023-05-10T11:21:15;0.52;;;0.50;;
74344;SDS011;62776;50.518;6.732;2023-05-10T11:24:12;0.52;;;0.52;;
74344;SDS011;62776;50.518;6.732;2023-05-10T11:27:00;1.83;;;0.40;;
74344;SDS011;62776;50.518;6.732;2023-05-10T11:29:50;0.73;;;0.50;;
74344;SDS011;62776;50.518;6.732;2023-05-10T11:32:38;1.17;;;0.50;;
74344;SDS011;62776;50.518;6.732;2023-05-10T11:35:27;1.20;;;1.10;;
74344;SDS011;62776;50.518;6.732;2023-05-10T11:38:15;3.17;;;0.50;;
74344;SDS011;62776;50.518;6.732;2023-05-10T11:41:01;0.32;;;0.32;;
74344;SDS011;62776;50.518;6.732;2023-05-10T11:43:51;0.30;;;0.30;;
74344;SDS011;62776;50.518;6.732;2023-05-10T11:46:39;0.40;;;0.40;;
74344;SDS011;62776;50.518;6.732;2023-05-10T11:49:27;0.50;;;0.40;;
74344;SDS011;62776;50.518;6.732;2023-05-10T11:52:15;0.40;;;0.40;;
74344;SDS011;62776;50.518;6.732;2023-05-10T11:55:05;0.63;;;0.52;;
74344;SDS011;62776;50.518;6.732;2023-05-10T11:57:52;1.85;;;0.60;;
74344;SDS011;62776;50.518;6.732;2023-05-10T12:00:40;0.57;;;0.57;;
74344;SDS011;62776;50.518;6.732;2023-05-10T12:03:28;0.30;;;0.30;;
74344;SDS011;62776;50.518;6.732;2023-05-10T12:06:22;0.38;;;0.38;;
74344;SDS011;62776;50.518;6.732;2023-05-10T12:09:12;0.60;;;0.60;;
74344;SDS011;62776;50.518;6.732;2023-05-10T12:12:00;0.45;;;0.45;;
74344;SDS011;62776;50.518;6.732;2023-05-10T12:14:48;1.45;;;0.60;;
74344;SDS011;62776;50.518;6.732;2023-05-10T12:17:37;0.38;;;0.30;;
74344;SDS011;62776;50.518;6.732;2023-05-10T12:20:27;0.50;;;0.50;;
74344;SDS011;62776;50.518;6.732;2023-05-10T12:23:14;1.67;;;0.38;;
74344;SDS011;62776;50.518;6.732;2023-05-10T12:26:03;0.32;;;0.32;;
74344;SDS011;62776;50.518;6.732;2023-05-10T12:28:53;0.40;;;0.40;;
74344;SDS011;62776;50.518;6.732;2023-05-10T12:31:56;0.50;;;0.50;;
74344;SDS011;62776;50.518;6.732;2023-05-10T12:34:46;0.30;;;0.30;;
74344;SDS011;62776;50.518;6.732;2023-05-10T12:37:36;0.80;;;0.75;;
74344;SDS011;62776;50.518;6.732;2023-05-10T12:40:25;0.80;;;0.80;;
74344;SDS011;62776;50.518;6.732;2023-05-10T12:43:12;0.50;;;0.50;;
74344;SDS011;62776;50.518;6.732;2023-05-10T12:46:19;2.83;;;0.95;;
74344;SDS011;62776;50.518;6.732;2023-05-10T12:49:06;1.50;;;0.47;;
74344;SDS011;62776;50.518;6.732;2023-05-10T12:51:53;0.50;;;0.47;;
74344;SDS011;62776;50.518;6.732;2023-05-10T12:54:40;0.57;;;0.30;;
74344;SDS011;62776;50.518;6.732;2023-05-10T12:57:27;0.40;;;0.40;;
74344;SDS011;62776;50.518;6.732;2023-05-10T13:00:17;1.15;;;0.60;;
74344;SDS011;62776;50.518;6.732;2023-05-10T13:03:06;0.30;;;0.30;;
74344;SDS011;62776;50.518;6.732;2023-05-10T13:06:06;0.32;;;0.30;;
74344;SDS011;62776;50.518;6.732;2023-05-10T13:08:56;0.40;;;0.40;;
74344;SDS011;62776;50.518;6.732;2023-05-10T13:11:47;1.33;;;0.40;;
74344;SDS011;62776;50.518;6.732;2023-05-10T13:14:36;0.30;;;0.30;;
74344;SDS011;62776;50.518;6.732;2023-05-10T13:17:26;1.95;;;0.50;;
74344;SDS011;62776;50.518;6.732;2023-05-10T13:20:17;0.30;;;0.30;;
74344;SDS011;62776;50.518;6.732;2023-05-10T13:23:08;0.30;;;0.30;;
74344;SDS011;62776;50.518;6.732;2023-05-10T13:25:59;0.45;;;0.40;;
74344;SDS011;62776;50.518;6.732;2023-05-10T13:28:45;1.55;;;0.50;;
74344;SDS011;62776;50.518;6.732;2023-05-10T13:31:36;0.50;;;0.50;;
74344;SDS011;62776;50.518;6.732;2023-05-10T13:34:26;1.23;;;0.50;;
74344;SDS011;62776;50.518;6.732;2023-05-10T13:37:17;2.30;;;0.63;;
74344;SDS011;62776;50.518;6.732;2023-05-10T13:40:09;0.30;;;0.30;;
74344;SDS011;62776;50.518;6.732;2023-05-10T13:43:08;0.43;;;0.43;;
74344;SDS011;62776;50.518;6.732;2023-05-10T13:45:57;0.90;;;0.60;;
74344;SDS011;62776;50.518;6.732;2023-05-10T13:48:47;1.13;;;0.60;;
74344;SDS011;62776;50.518;6.732;2023-05-10T13:51:35;1.27;;;0.40;;
74344;SDS011;62776;50.518;6.732;2023-05-10T13:54:23;0.95;;;0.50;;
74344;SDS011;62776;50.518;6.732;2023-05-10T13:57:17;0.38;;;0.35;;
74344;SDS011;62776;50.518;6.732;2023-05-10T14:00:07;0.60;;;0.60;;
74344;SDS011;62776;50.518;6.732;2023-05-10T14:02:54;0.47;;;0.47;;
74344;SDS011;62776;50.518;6.732;2023-05-10T14:05:41;0.38;;;0.35;;
74344;SDS011;62776;50.518;6.732;2023-05-10T14:08:31;0.80;;;0.50;;
74344;SDS011;62776;50.518;6.732;2023-05-10T14:11:17;0.50;;;0.50;;
74344;SDS011;62776;50.518;6.732;2023-05-10T14:14:09;1.50;;;0.50;;
74344;SDS011;62776;50.518;6.732;2023-05-10T14:17:01;1.02;;;0.60;;
74344;SDS011;62776;50.518;6.732;2023-05-10T14:19:49;1.02;;;0.60;;
74344;SDS011;62776;50.518;6.732;2023-05-10T14:22:41;0.75;;;0.70;;
74344;SDS011;62776;50.518;6.732;2023-05-10T14:25:29;0.57;;;0.57;;
74344;SDS011;62776;50.518;6.732;2023-05-10T14:28:17;0.65;;;0.40;;
74344;SDS011;62776;50.518;6.732;2023-05-10T14:31:07;1.15;;;0.60;;
74344;SDS011;62776;50.518;6.732;2023-05-10T14:33:54;0.47;;;0.40;;
74344;SDS011;62776;50.518;6.732;2023-05-10T14:36:40;0.38;;;0.38;;
74344;SDS011;62776;50.518;6.732;2023-05-10T14:39:32;0.57;;;0.57;;
74344;SDS011;62776;50.518;6.732;2023-05-10T14:42:19;1.02;;;0.57;;
74344;SDS011;62776;50.518;6.732;2023-05-10T14:45:05;0.60;;;0.60;;
74344;SDS011;62776;50.518;6.732;2023-05-10T14:47:52;0.68;;;0.68;;
74344;SDS011;62776;50.518;6.732;2023-05-10T14:50:39;0.82;;;0.70;;
74344;SDS011;62776;50.518;6.732;2023-05-10T14:53:31;1.02;;;0.55;;
74344;SDS011;62776;50.518;6.732;2023-05-10T14:56:19;0.85;;;0.60;;
74344;SDS011;62776;50.518;6.732;2023-05-10T14:59:06;1.23;;;0.63;;
74344;SDS011;62776;50.518;6.732;2023-05-10T15:01:58;0.70;;;0.70;;
74344;SDS011;62776;50.518;6.732;2023-05-10T15:04:46;1.80;;;0.77;;
74344;SDS011;62776;50.518;6.732;2023-05-10T15:07:34;0.50;;;0.50;;
74344;SDS011;62776;50.518;6.732;2023-05-10T15:10:26;0.90;;;0.63;;
74344;SDS011;62776;50.518;6.732;2023-05-10T15:13:21;0.52;;;0.52;;
74344;SDS011;62776;50.518;6.732;2023-05-10T15:16:09;0.60;;;0.60;;
74344;SDS011;62776;50.518;6.732;2023-05-10T15:18:56;0.60;;;0.60;;
74344;SDS011;62776;50.518;6.732;2023-05-10T15:21:46;0.40;;;0.40;;
74344;SDS011;62776;50.518;6.732;2023-05-10T15:24:33;0.88;;;0.55;;
74344;SDS011;62776;50.518;6.732;2023-05-10T15:27:19;0.88;;;0.50;;
74344;SDS011;62776;50.518;6.732;2023-05-10T15:30:07;1.52;;;0.63;;
74344;SDS011;62776;50.518;6.732;2023-05-10T15:33:00;3.83;;;0.60;;
74344;SDS011;62776;50.518;6.732;2023-05-10T15:35:47;0.70;;;0.70;;
74344;SDS011;62776;50.518;6.732;2023-05-10T15:38:35;0.70;;;0.70;;
74344;SDS011;62776;50.518;6.732;2023-05-10T15:41:23;1.33;;;0.80;;
74344;SDS011;62776;50.518;6.732;2023-05-10T15:44:10;0.65;;;0.40;;
74344;SDS011;62776;50.518;6.732;2023-05-10T15:46:59;0.57;;;0.57;;
74344;SDS011;62776;50.518;6.732;2023-05-10T15:49:45;0.52;;;0.47;;
74344;SDS011;62776;50.518;6.732;2023-05-10T15:52:32;2.63;;;0.68;;
74344;SDS011;62776;50.518;6.732;2023-05-10T15:55:20;0.50;;;0.50;;
74344;SDS011;62776;50.518;6.732;2023-05-10T15:58:07;2.20;;;0.70;;
74344;SDS011;62776;50.518;6.732;2023-05-10T16:01:02;1.48;;;0.70;;
74344;SDS011;62776;50.518;6.732;2023-05-10T16:03:58;1.25;;;0.70;;
74344;SDS011;62776;50.518;6.732;2023-05-10T16:06:47;1.60;;;0.77;;
74344;SDS011;62776;50.518;6.732;2023-05-10T16:09:37;0.80;;;0.50;;
74344;SDS011;62776;50.518;6.732;2023-05-10T16:12:26;0.60;;;0.60;;
74344;SDS011;62776;50.518;6.732;2023-05-10T16:15:13;0.63;;;0.60;;
74344;SDS011;62776;50.518;6.732;2023-05-10T16:18:04;0.60;;;0.60;;
74344;SDS011;62776;50.518;6.732;2023-05-10T16:20:58;0.80;;;0.60;;
74344;SDS011;62776;50.518;6.732;2023-05-10T16:23:59;0.60;;;0.60;;
74344;SDS011;62776;50.518;6.732;2023-05-10T16:26:49;0.90;;;0.80;;
74344;SDS011;62776;50.518;6.732;2023-05-10T16:29:38;0.70;;;0.43;;
74344;SDS011;62776;50.518;6.732;2023-05-10T16:32:25;1.02;;;0.70;;
74344;SDS011;62776;50.518;6.732;2023-05-10T16:35:23;0.60;;;0.60;;
74344;SDS011;62776;50.518;6.732;2023-05-10T16:38:10;0.70;;;0.47;;
74344;SDS011;62776;50.518;6.732;2023-05-10T16:41:00;1.00;;;0.70;;
74344;SDS011;62776;50.518;6.732;2023-05-10T16:43:49;0.93;;;0.85;;
74344;SDS011;62776;50.518;6.732;2023-05-10T16:46:38;0.50;;;0.50;;
74344;SDS011;62776;50.518;6.732;2023-05-10T16:49:38;2.45;;;0.70;;
74344;SDS011;62776;50.518;6.732;2023-05-10T16:52:27;2.10;;;0.70;;
74344;SDS011;62776;50.518;6.732;2023-05-10T16:55:24;0.85;;;0.85;;
74344;SDS011;62776;50.518;6.732;2023-05-10T16:58:11;0.70;;;0.70;;
74344;SDS011;62776;50.518;6.732;2023-05-10T17:01:02;2.47;;;0.90;;
74344;SDS011;62776;50.518;6.732;2023-05-10T17:03:49;1.33;;;0.77;;
74344;SDS011;62776;50.518;6.732;2023-05-10T17:06:45;1.17;;;0.63;;
74344;SDS011;62776;50.518;6.732;2023-05-10T17:09:34;2.10;;;0.80;;
74344;SDS011;62776;50.518;6.732;2023-05-10T17:12:22;1.38;;;0.82;;
74344;SDS011;62776;50.518;6.732;2023-05-10T17:15:11;1.33;;;0.70;;
74344;SDS011;62776;50.518;6.732;2023-05-10T17:18:06;0.95;;;0.70;;
74344;SDS011;62776;50.518;6.732;2023-05-10T17:20:54;1.13;;;0.93;;
74344;SDS011;62776;50.518;6.732;2023-05-10T17:23:44;0.93;;;0.70;;
74344;SDS011;62776;50.518;6.732;2023-05-10T17:26:31;0.90;;;0.90;;
74344;SDS011;62776;50.518;6.732;2023-05-10T17:29:18;0.80;;;0.80;;
74344;SDS011;62776;50.518;6.732;2023-05-10T17:32:09;0.80;;;0.80;;
74344;SDS011;62776;50.518;6.732;2023-05-10T17:34:58;3.55;;;0.80;;
74344;SDS011;62776;50.518;6.732;2023-05-10T17:37:50;0.80;;;0.80;;
74344;SDS011;62776;50.518;6.732;2023-05-10T17:40:39;0.77;;;0.60;;
74344;SDS011;62776;50.518;6.732;2023-05-10T17:43:28;0.70;;;0.70;;
74344;SDS011;62776;50.518;6.732;2023-05-10T17:46:15;0.80;;;0.73;;
74344;SDS011;62776;50.518;6.732;2023-05-10T17:49:02;2.42;;;0.70;;
74344;SDS011;62776;50.518;6.732;2023-05-10T17:51:48;0.63;;;0.63;;
74344;SDS011;62776;50.518;6.732;2023-05-10T17:54:41;0.82;;;0.82;;
74344;SDS011;62776;50.518;6.732;2023-05-10T17:57:28;0.70;;;0.70;;
74344;SDS011;62776;50.518;6.732;2023-05-10T18:00:25;0.90;;;0.90;;
74344;SDS011;62776;50.518;6.732;2023-05-10T18:03:14;1.08;;;1.05;;
74344;SDS011;62776;50.518;6.732;2023-05-10T18:06:01;0.73;;;0.73;;